Viradouro, Brazil
Current Conditions -  °F | °C
As of 10:00 PM on Friday 21 Nov 2014 (Local Time) from SBRP Reporting Station
Clear Clear  
Wind Chill: 81°   Ceiling: Unl
Heat Index: 81°   Visibility: 6mi
Dew Point: 61°   Wind: 5mph
Humidity: 51%   Direction: 90°E
Pressure: 29.91"   Gusts: NA
Location:  20.87°S, 48.3°W
Report Text: SBRP 220000Z 09004KT CAVOK 27/16 Q1013
Loading
Personal Weather Stations






























Interactive Weather Map New forecast layout! Learn more

10-Day Weather Forecast

Advertisements
Track Severe Weather on mobile